sensor_id;sensor_type;location;lat;lon;timestamp;pressure;altitude;pressure_sealevel;temperature;humidity
75166;BME280;63747;48.042;10.088;2022-12-07T00:02:08;95149.91;;;1.64;73.01
75166;BME280;63747;48.042;10.088;2022-12-07T00:05:08;95142.66;;;1.67;73.10
75166;BME280;63747;48.042;10.088;2022-12-07T00:08:09;95148.34;;;1.61;73.46
75166;BME280;63747;48.042;10.088;2022-12-07T00:11:20;95138.97;;;1.58;73.43
75166;BME280;63747;48.042;10.088;2022-12-07T00:14:21;95142.91;;;1.42;73.58
75166;BME280;63747;48.042;10.088;2022-12-07T00:17:22;95143.38;;;1.24;74.30
75166;BME280;63747;48.042;10.088;2022-12-07T00:20:22;95140.63;;;1.15;74.37
75166;BME280;63747;48.042;10.088;2022-12-07T00:23:23;95138.84;;;1.04;74.61
75166;BME280;63747;48.042;10.088;2022-12-07T00:26:29;95135.53;;;1.13;74.67
75166;BME280;63747;48.042;10.088;2022-12-07T00:29:30;95136.75;;;1.09;74.79
75166;BME280;63747;48.042;10.088;2022-12-07T00:32:31;95128.16;;;1.07;74.79
75166;BME280;63747;48.042;10.088;2022-12-07T00:35:32;95127.34;;;1.06;74.94
75166;BME280;63747;48.042;10.088;2022-12-07T00:38:34;95127.69;;;0.91;75.46
75166;BME280;63747;48.042;10.088;2022-12-07T00:41:35;95123.63;;;0.87;75.50
75166;BME280;63747;48.042;10.088;2022-12-07T00:44:36;95123.72;;;0.74;75.94
75166;BME280;63747;48.042;10.088;2022-12-07T00:47:36;95126.81;;;0.68;76.45
75166;BME280;63747;48.042;10.088;2022-12-07T00:50:37;95137.16;;;0.69;76.35
75166;BME280;63747;48.042;10.088;2022-12-07T00:53:39;95138.06;;;0.68;76.47
75166;BME280;63747;48.042;10.088;2022-12-07T00:56:40;95135.69;;;0.65;76.77
75166;BME280;63747;48.042;10.088;2022-12-07T00:59:40;95136.97;;;0.60;76.80
75166;BME280;63747;48.042;10.088;2022-12-07T01:02:41;95138.31;;;0.65;76.85
75166;BME280;63747;48.042;10.088;2022-12-07T01:05:52;95128.25;;;0.72;76.88
75166;BME280;63747;48.042;10.088;2022-12-07T01:08:55;95132.88;;;0.79;76.51
75166;BME280;63747;48.042;10.088;2022-12-07T01:11:55;95138.34;;;0.88;76.38
75166;BME280;63747;48.042;10.088;2022-12-07T01:14:56;95136.47;;;0.90;76.18
75166;BME280;63747;48.042;10.088;2022-12-07T01:17:57;95132.09;;;0.90;76.22
75166;BME280;63747;48.042;10.088;2022-12-07T01:21:05;95136.09;;;0.94;75.96
75166;BME280;63747;48.042;10.088;2022-12-07T01:24:09;95133.50;;;0.94;75.88
75166;BME280;63747;48.042;10.088;2022-12-07T01:27:10;95147.38;;;0.95;76.05
75166;BME280;63747;48.042;10.088;2022-12-07T01:30:13;95145.50;;;0.97;76.01
75166;BME280;63747;48.042;10.088;2022-12-07T01:33:14;95145.59;;;0.95;75.96
75166;BME280;63747;48.042;10.088;2022-12-07T01:36:16;95154.16;;;0.97;76.07
75166;BME280;63747;48.042;10.088;2022-12-07T01:39:17;95147.41;;;1.06;76.13
75166;BME280;63747;48.042;10.088;2022-12-07T01:42:18;95149.06;;;1.07;75.98
75166;BME280;63747;48.042;10.088;2022-12-07T01:45:40;95145.63;;;1.06;75.98
75166;BME280;63747;48.042;10.088;2022-12-07T01:48:41;95133.41;;;1.07;75.92
75166;BME280;63747;48.042;10.088;2022-12-07T01:51:43;95139.69;;;1.04;75.84
75166;BME280;63747;48.042;10.088;2022-12-07T01:54:47;95135.88;;;1.09;75.73
75166;BME280;63747;48.042;10.088;2022-12-07T01:57:52;95141.47;;;1.15;75.73
75166;BME280;63747;48.042;10.088;2022-12-07T02:00:54;95131.97;;;1.14;75.64
75166;BME280;63747;48.042;10.088;2022-12-07T02:03:55;95132.91;;;1.02;75.71
75166;BME280;63747;48.042;10.088;2022-12-07T02:06:56;95131.03;;;1.04;75.70
75166;BME280;63747;48.042;10.088;2022-12-07T02:10:15;95132.56;;;1.06;75.74
75166;BME280;63747;48.042;10.088;2022-12-07T02:13:22;95134.84;;;1.11;75.43
75166;BME280;63747;48.042;10.088;2022-12-07T02:16:46;95132.56;;;1.06;75.14
75166;BME280;63747;48.042;10.088;2022-12-07T02:29:50;95124.72;;;0.95;75.02
75166;BME280;63747;48.042;10.088;2022-12-07T02:33:08;95119.50;;;0.95;75.26
75166;BME280;63747;48.042;10.088;2022-12-07T02:36:17;95117.00;;;0.94;75.12
75166;BME280;63747;48.042;10.088;2022-12-07T02:39:52;95125.06;;;1.02;75.14
75166;BME280;63747;48.042;10.088;2022-12-07T02:43:45;95126.16;;;1.11;74.79
75166;BME280;63747;48.042;10.088;2022-12-07T02:46:23;95120.72;;;1.02;74.81
75166;BME280;63747;48.042;10.088;2022-12-07T02:49:26;95124.84;;;1.05;74.64
75166;BME280;63747;48.042;10.088;2022-12-07T02:52:28;95120.56;;;0.93;74.72
75166;BME280;63747;48.042;10.088;2022-12-07T02:55:34;95124.47;;;0.87;74.78
75166;BME280;63747;48.042;10.088;2022-12-07T03:05:31;95120.28;;;0.73;75.48
75166;BME280;63747;48.042;10.088;2022-12-07T03:11:55;95121.03;;;0.87;75.07
75166;BME280;63747;48.042;10.088;2022-12-07T03:15:11;95122.09;;;0.84;75.10
75166;BME280;63747;48.042;10.088;2022-12-07T03:18:21;95119.50;;;0.84;75.07
75166;BME280;63747;48.042;10.088;2022-12-07T03:21:25;95116.75;;;0.86;74.95
75166;BME280;63747;48.042;10.088;2022-12-07T03:24:31;95121.84;;;0.87;75.14
75166;BME280;63747;48.042;10.088;2022-12-07T03:27:39;95118.91;;;0.92;74.94
75166;BME280;63747;48.042;10.088;2022-12-07T03:30:46;95125.91;;;0.91;74.94
75166;BME280;63747;48.042;10.088;2022-12-07T03:33:57;95128.16;;;0.85;74.80
75166;BME280;63747;48.042;10.088;2022-12-07T03:37:23;95132.19;;;0.77;74.85
75166;BME280;63747;48.042;10.088;2022-12-07T03:40:37;95128.13;;;0.73;75.18
75166;BME280;63747;48.042;10.088;2022-12-07T03:43:41;95118.38;;;0.64;75.19
75166;BME280;63747;48.042;10.088;2022-12-07T03:47:11;95124.69;;;0.62;75.26
75166;BME280;63747;48.042;10.088;2022-12-07T03:50:25;95115.44;;;0.69;75.33
75166;BME280;63747;48.042;10.088;2022-12-07T03:53:35;95119.00;;;0.79;75.39
75166;BME280;63747;48.042;10.088;2022-12-07T03:56:39;95121.41;;;0.93;75.03
75166;BME280;63747;48.042;10.088;2022-12-07T03:59:41;95120.69;;;0.91;74.73
75166;BME280;63747;48.042;10.088;2022-12-07T04:02:43;95129.44;;;0.79;74.81
75166;BME280;63747;48.042;10.088;2022-12-07T04:05:45;95126.13;;;0.77;74.76
75166;BME280;63747;48.042;10.088;2022-12-07T04:08:50;95125.25;;;0.65;74.91
75166;BME280;63747;48.042;10.088;2022-12-07T04:11:53;95127.88;;;0.65;74.97
75166;BME280;63747;48.042;10.088;2022-12-07T04:14:57;95118.97;;;0.68;75.01
75166;BME280;63747;48.042;10.088;2022-12-07T04:17:58;95124.69;;;0.62;74.88
75166;BME280;63747;48.042;10.088;2022-12-07T04:24:32;95116.06;;;0.84;74.79
75166;BME280;63747;48.042;10.088;2022-12-07T04:27:33;95120.31;;;0.85;74.55
75166;BME280;63747;48.042;10.088;2022-12-07T04:30:54;95128.16;;;0.85;74.64
75166;BME280;63747;48.042;10.088;2022-12-07T04:33:55;95127.69;;;0.91;74.28
75166;BME280;63747;48.042;10.088;2022-12-07T04:36:56;95120.34;;;0.96;74.27
75166;BME280;63747;48.042;10.088;2022-12-07T04:39:58;95117.63;;;0.97;74.26
75166;BME280;63747;48.042;10.088;2022-12-07T04:43:05;95119.28;;;0.98;74.26
75166;BME280;63747;48.042;10.088;2022-12-07T04:46:09;95117.38;;;1.00;73.94
75166;BME280;63747;48.042;10.088;2022-12-07T04:49:11;95116.19;;;0.93;74.12
75166;BME280;63747;48.042;10.088;2022-12-07T04:52:12;95120.69;;;0.91;74.20
75166;BME280;63747;48.042;10.088;2022-12-07T04:55:13;95123.19;;;0.93;74.18
75166;BME280;63747;48.042;10.088;2022-12-07T04:58:14;95113.56;;;0.82;74.28
75166;BME280;63747;48.042;10.088;2022-12-07T05:01:16;95115.22;;;0.83;74.47
75166;BME280;63747;48.042;10.088;2022-12-07T05:04:17;95121.53;;;0.92;74.17
75166;BME280;63747;48.042;10.088;2022-12-07T05:07:18;95117.75;;;0.96;73.96
75166;BME280;63747;48.042;10.088;2022-12-07T05:10:19;95112.16;;;0.89;73.98
75166;BME280;63747;48.042;10.088;2022-12-07T05:13:19;95124.47;;;0.87;74.26
75166;BME280;63747;48.042;10.088;2022-12-07T05:16:20;95124.97;;;0.92;74.26
75166;BME280;63747;48.042;10.088;2022-12-07T05:19:21;95119.75;;;0.92;73.94
75166;BME280;63747;48.042;10.088;2022-12-07T05:22:23;95122.09;;;0.84;74.09
75166;BME280;63747;48.042;10.088;2022-12-07T05:25:28;95123.88;;;0.84;74.20
75166;BME280;63747;48.042;10.088;2022-12-07T05:28:31;95121.53;;;0.92;74.35
75166;BME280;63747;48.042;10.088;2022-12-07T05:31:33;95127.22;;;0.97;74.17
75166;BME280;63747;48.042;10.088;2022-12-07T05:34:34;95127.69;;;1.02;73.95
75166;BME280;63747;48.042;10.088;2022-12-07T05:37:35;95123.19;;;1.04;73.77
75166;BME280;63747;48.042;10.088;2022-12-07T05:40:37;95120.72;;;1.02;73.90
75166;BME280;63747;48.042;10.088;2022-12-07T05:43:38;95119.75;;;1.03;73.88
75166;BME280;63747;48.042;10.088;2022-12-07T05:46:39;95125.69;;;1.05;73.71
75166;BME280;63747;48.042;10.088;2022-12-07T05:49:40;95119.16;;;1.11;73.64
75166;BME280;63747;48.042;10.088;2022-12-07T05:52:41;95124.38;;;1.11;73.58
75166;BME280;63747;48.042;10.088;2022-12-07T05:55:43;95121.91;;;1.10;73.48
75166;BME280;63747;48.042;10.088;2022-12-07T05:58:44;95127.13;;;1.10;73.37
75166;BME280;63747;48.042;10.088;2022-12-07T06:02:13;95126.28;;;1.09;73.37
75166;BME280;63747;48.042;10.088;2022-12-07T06:05:15;95126.28;;;1.09;73.23
75166;BME280;63747;48.042;10.088;2022-12-07T06:08:16;95125.06;;;1.02;73.39
75166;BME280;63747;48.042;10.088;2022-12-07T06:11:17;95122.22;;;0.94;73.82
75166;BME280;63747;48.042;10.088;2022-12-07T06:14:37;95128.88;;;0.87;73.77
75166;BME280;63747;48.042;10.088;2022-12-07T06:17:38;95125.66;;;0.83;74.10
75166;BME280;63747;48.042;10.088;2022-12-07T06:20:39;95120.44;;;0.83;74.02
75166;BME280;63747;48.042;10.088;2022-12-07T06:27:01;95127.91;;;0.76;74.19
75166;BME280;63747;48.042;10.088;2022-12-07T06:30:03;95121.25;;;0.72;74.19
75166;BME280;63747;48.042;10.088;2022-12-07T06:33:06;95127.28;;;0.62;74.53
75166;BME280;63747;48.042;10.088;2022-12-07T06:36:09;95128.13;;;0.62;74.63
75166;BME280;63747;48.042;10.088;2022-12-07T06:39:13;95129.16;;;0.60;74.75
75166;BME280;63747;48.042;10.088;2022-12-07T06:42:40;95142.00;;;0.63;74.87
75166;BME280;63747;48.042;10.088;2022-12-07T06:45:45;95134.28;;;0.72;74.77
75166;BME280;63747;48.042;10.088;2022-12-07T06:48:46;95132.19;;;0.77;74.52
75166;BME280;63747;48.042;10.088;2022-12-07T06:51:47;95147.84;;;0.77;74.56
75166;BME280;63747;48.042;10.088;2022-12-07T06:54:49;95141.91;;;0.75;74.29
75166;BME280;63747;48.042;10.088;2022-12-07T06:57:50;95146.75;;;0.80;74.55
75166;BME280;63747;48.042;10.088;2022-12-07T07:00:51;95144.03;;;0.82;74.31
75166;BME280;63747;48.042;10.088;2022-12-07T07:03:53;95147.88;;;0.89;74.42
75166;BME280;63747;48.042;10.088;2022-12-07T07:07:17;95149.63;;;0.88;74.34
75166;BME280;63747;48.042;10.088;2022-12-07T07:10:29;95147.75;;;0.90;74.18
75166;BME280;63747;48.042;10.088;2022-12-07T07:13:30;95143.09;;;0.94;74.01
75166;BME280;63747;48.042;10.088;2022-12-07T07:16:34;95153.16;;;0.87;74.11
75166;BME280;63747;48.042;10.088;2022-12-07T07:19:38;95157.34;;;0.90;74.19
75166;BME280;63747;48.042;10.088;2022-12-07T07:22:43;95146.44;;;0.96;74.29
75166;BME280;63747;48.042;10.088;2022-12-07T07:25:47;95149.31;;;1.04;74.11
75166;BME280;63747;48.042;10.088;2022-12-07T07:28:48;95154.53;;;1.04;74.07
75166;BME280;63747;48.042;10.088;2022-12-07T07:31:49;95156.03;;;0.95;73.93
75166;BME280;63747;48.042;10.088;2022-12-07T07:34:50;95162.03;;;0.73;74.46
75166;BME280;63747;48.042;10.088;2022-12-07T07:37:51;95161.06;;;0.63;74.93
75166;BME280;63747;48.042;10.088;2022-12-07T07:40:53;95166.44;;;0.73;74.71
75166;BME280;63747;48.042;10.088;2022-12-07T07:44:03;95165.25;;;0.77;74.85
75166;BME280;63747;48.042;10.088;2022-12-07T07:47:08;95163.69;;;0.74;74.65
75166;BME280;63747;48.042;10.088;2022-12-07T07:50:12;95167.75;;;0.78;74.82
75166;BME280;63747;48.042;10.088;2022-12-07T07:53:13;95169.91;;;0.85;74.60
75166;BME280;63747;48.042;10.088;2022-12-07T07:56:14;95161.25;;;0.84;74.63
75166;BME280;63747;48.042;10.088;2022-12-07T07:59:15;95174.63;;;0.79;74.61
75166;BME280;63747;48.042;10.088;2022-12-07T08:02:21;95171.91;;;0.81;74.83
75166;BME280;63747;48.042;10.088;2022-12-07T08:05:23;95179.50;;;0.84;74.89
75166;BME280;63747;48.042;10.088;2022-12-07T08:08:34;95170.63;;;0.98;74.58
75166;BME280;63747;48.042;10.088;2022-12-07T08:11:36;95174.00;;;1.11;74.40
75166;BME280;63747;48.042;10.088;2022-12-07T08:14:38;95176.72;;;1.21;74.16
75166;BME280;63747;48.042;10.088;2022-12-07T08:17:39;95171.63;;;1.30;73.97
75166;BME280;63747;48.042;10.088;2022-12-07T08:20:41;95173.16;;;1.33;73.78
75166;BME280;63747;48.042;10.088;2022-12-07T08:23:42;95173.28;;;1.31;73.89
75166;BME280;63747;48.042;10.088;2022-12-07T08:26:44;95172.09;;;1.36;74.00
75166;BME280;63747;48.042;10.088;2022-12-07T08:29:45;95171.88;;;1.39;74.09
75166;BME280;63747;48.042;10.088;2022-12-07T08:32:46;95163.78;;;1.42;74.17
75166;BME280;63747;48.042;10.088;2022-12-07T08:35:47;95167.97;;;1.44;74.13
75166;BME280;63747;48.042;10.088;2022-12-07T08:38:49;95170.19;;;1.49;73.95
75166;BME280;63747;48.042;10.088;2022-12-07T08:41:50;95168.31;;;1.51;74.04
75166;BME280;63747;48.042;10.088;2022-12-07T08:44:57;95168.31;;;1.51;74.02
75166;BME280;63747;48.042;10.088;2022-12-07T08:48:10;95170.81;;;1.52;74.13
75166;BME280;63747;48.042;10.088;2022-12-07T08:51:24;95162.63;;;1.57;73.83
75166;BME280;63747;48.042;10.088;2022-12-07T08:54:25;95165.69;;;1.62;73.96
75166;BME280;63747;48.042;10.088;2022-12-07T08:57:27;95165.34;;;1.67;74.02
75166;BME280;63747;48.042;10.088;2022-12-07T09:00:29;95171.72;;;1.63;73.94
75166;BME280;63747;48.042;10.088;2022-12-07T09:03:30;95168.28;;;1.62;74.08
75166;BME280;63747;48.042;10.088;2022-12-07T09:06:30;95167.81;;;1.68;74.06
75166;BME280;63747;48.042;10.088;2022-12-07T09:09:31;95160.72;;;1.70;73.88
75166;BME280;63747;48.042;10.088;2022-12-07T09:12:32;95165.44;;;1.76;73.93
75166;BME280;63747;48.042;10.088;2022-12-07T09:15:33;95166.50;;;1.85;73.58
75166;BME280;63747;48.042;10.088;2022-12-07T09:18:34;95166.94;;;1.90;73.50
75166;BME280;63747;48.042;10.088;2022-12-07T09:21:35;95153.44;;;1.85;73.61
75166;BME280;63747;48.042;10.088;2022-12-07T09:24:35;95154.22;;;1.97;73.50
75166;BME280;63747;48.042;10.088;2022-12-07T09:27:36;95156.63;;;2.00;73.45
75166;BME280;63747;48.042;10.088;2022-12-07T09:30:37;95156.28;;;1.93;73.36
75166;BME280;63747;48.042;10.088;2022-12-07T09:33:38;95155.91;;;1.98;73.46
75166;BME280;63747;48.042;10.088;2022-12-07T09:36:39;95155.16;;;2.07;73.15
75166;BME280;63747;48.042;10.088;2022-12-07T09:39:40;95161.31;;;2.17;73.21
75166;BME280;63747;48.042;10.088;2022-12-07T09:42:47;95158.09;;;2.25;72.87
75166;BME280;63747;48.042;10.088;2022-12-07T09:45:51;95151.03;;;2.36;72.75
75166;BME280;63747;48.042;10.088;2022-12-07T09:48:53;95154.69;;;2.45;72.46
75166;BME280;63747;48.042;10.088;2022-12-07T09:55:03;95145.22;;;2.65;72.09
75166;BME280;63747;48.042;10.088;2022-12-07T09:58:03;95144.34;;;2.64;71.93
75166;BME280;63747;48.042;10.088;2022-12-07T10:04:22;95138.84;;;2.79;72.08
75166;BME280;63747;48.042;10.088;2022-12-07T10:07:24;95130.66;;;2.93;71.87
75166;BME280;63747;48.042;10.088;2022-12-07T10:10:30;95135.13;;;3.02;71.79
75166;BME280;63747;48.042;10.088;2022-12-07T10:13:39;95123.00;;;3.01;71.48
75166;BME280;63747;48.042;10.088;2022-12-07T10:16:41;95134.78;;;3.16;71.18
75166;BME280;63747;48.042;10.088;2022-12-07T10:19:42;95124.47;;;3.24;71.13
75166;BME280;63747;48.042;10.088;2022-12-07T10:23:03;95121.53;;;3.18;70.43
75166;BME280;63747;48.042;10.088;2022-12-07T10:29:29;95117.84;;;3.41;69.98
75166;BME280;63747;48.042;10.088;2022-12-07T10:32:35;95112.06;;;3.47;69.94
75166;BME280;63747;48.042;10.088;2022-12-07T10:35:42;95115.22;;;3.41;69.45
75166;BME280;63747;48.042;10.088;2022-12-07T10:38:45;95112.31;;;3.44;69.61
75166;BME280;63747;48.042;10.088;2022-12-07T10:42:02;95109.84;;;3.43;68.96
75166;BME280;63747;48.042;10.088;2022-12-07T10:48:31;95103.25;;;3.48;68.66
75166;BME280;63747;48.042;10.088;2022-12-07T10:51:45;95096.94;;;3.61;68.23
75166;BME280;63747;48.042;10.088;2022-12-07T10:59:20;95085.66;;;3.70;67.66
75166;BME280;63747;48.042;10.088;2022-12-07T11:05:52;95079.63;;;3.98;67.48
75166;BME280;63747;48.042;10.088;2022-12-07T11:18:49;95066.66;;;4.06;66.71
75166;BME280;63747;48.042;10.088;2022-12-07T11:21:55;95061.84;;;4.02;66.51
75166;BME280;63747;48.042;10.088;2022-12-07T11:25:31;95063.09;;;4.07;65.77
75166;BME280;63747;48.042;10.088;2022-12-07T11:32:01;95063.31;;;3.85;65.88
75166;BME280;63747;48.042;10.088;2022-12-07T11:38:22;95054.19;;;3.60;65.98
75166;BME280;63747;48.042;10.088;2022-12-07T11:41:29;95052.78;;;3.56;65.85
75166;BME280;63747;48.042;10.088;2022-12-07T11:48:15;95045.41;;;3.40;65.97
75166;BME280;63747;48.042;10.088;2022-12-07T11:51:20;95045.31;;;3.42;66.06
75166;BME280;63747;48.042;10.088;2022-12-07T11:54:26;95045.31;;;3.51;65.89
75166;BME280;63747;48.042;10.088;2022-12-07T11:57:41;95042.44;;;3.55;65.49
75166;BME280;63747;48.042;10.088;2022-12-07T12:00:45;95030.72;;;3.59;66.09
75166;BME280;63747;48.042;10.088;2022-12-07T12:03:47;95029.09;;;3.67;65.84
75166;BME280;63747;48.042;10.088;2022-12-07T12:06:49;95020.13;;;3.60;65.76
75166;BME280;63747;48.042;10.088;2022-12-07T12:09:54;95026.00;;;3.52;66.13
75166;BME280;63747;48.042;10.088;2022-12-07T12:13:01;95021.63;;;3.63;66.25
75166;BME280;63747;48.042;10.088;2022-12-07T12:23:19;95015.53;;;3.52;64.90
75166;BME280;63747;48.042;10.088;2022-12-07T12:26:23;95013.34;;;3.48;64.33
75166;BME280;63747;48.042;10.088;2022-12-07T12:29:32;95022.63;;;3.31;64.31
75166;BME280;63747;48.042;10.088;2022-12-07T12:32:42;95014.31;;;3.16;64.89
75166;BME280;63747;48.042;10.088;2022-12-07T12:35:44;95013.78;;;3.22;65.16
75166;BME280;63747;48.042;10.088;2022-12-07T12:42:00;95004.41;;;3.20;65.05
75166;BME280;63747;48.042;10.088;2022-12-07T12:45:30;95005.63;;;3.25;64.91
75166;BME280;63747;48.042;10.088;2022-12-07T12:48:37;95007.03;;;3.20;65.19
75166;BME280;63747;48.042;10.088;2022-12-07T12:51:40;95008.69;;;3.21;64.96
75166;BME280;63747;48.042;10.088;2022-12-07T12:55:26;95014.00;;;3.10;65.12
75166;BME280;63747;48.042;10.088;2022-12-07T12:58:35;95006.94;;;3.01;65.51
75166;BME280;63747;48.042;10.088;2022-12-07T13:01:42;95000.78;;;3.11;65.19
75166;BME280;63747;48.042;10.088;2022-12-07T13:07:57;95005.03;;;3.43;65.04
75166;BME280;63747;48.042;10.088;2022-12-07T13:11:20;94993.63;;;3.63;64.71
75166;BME280;63747;48.042;10.088;2022-12-07T13:14:43;94997.34;;;3.70;64.35
75166;BME280;63747;48.042;10.088;2022-12-07T13:24:10;94983.69;;;4.05;63.49
75166;BME280;63747;48.042;10.088;2022-12-07T13:27:12;94981.19;;;4.14;63.95
75166;BME280;63747;48.042;10.088;2022-12-07T13:30:20;94983.25;;;4.20;62.94
75166;BME280;63747;48.042;10.088;2022-12-07T13:33:21;94987.00;;;3.98;62.92
75166;BME280;63747;48.042;10.088;2022-12-07T13:36:24;94976.81;;;3.95;63.06
75166;BME280;63747;48.042;10.088;2022-12-07T13:39:26;94981.22;;;3.94;62.56
75166;BME280;63747;48.042;10.088;2022-12-07T13:42:32;94971.69;;;3.93;62.59
75166;BME280;63747;48.042;10.088;2022-12-07T13:45:33;94976.09;;;4.12;62.69
75166;BME280;63747;48.042;10.088;2022-12-07T13:48:50;94964.53;;;4.15;62.30
75166;BME280;63747;48.042;10.088;2022-12-07T13:51:52;94955.69;;;4.16;62.36
75166;BME280;63747;48.042;10.088;2022-12-07T13:57:59;94956.09;;;4.11;61.67
75166;BME280;63747;48.042;10.088;2022-12-07T14:01:00;94961.09;;;3.95;61.94
75166;BME280;63747;48.042;10.088;2022-12-07T14:04:36;94956.53;;;3.87;61.43
75166;BME280;63747;48.042;10.088;2022-12-07T14:08:34;94952.94;;;3.78;61.56
75166;BME280;63747;48.042;10.088;2022-12-07T14:11:19;94959.16;;;3.68;61.78
75166;BME280;63747;48.042;10.088;2022-12-07T14:14:24;94962.28;;;3.42;62.05
75166;BME280;63747;48.042;10.088;2022-12-07T14:17:26;94969.09;;;3.24;62.32
75166;BME280;63747;48.042;10.088;2022-12-07T14:20:29;94970.34;;;3.20;62.64
75166;BME280;63747;48.042;10.088;2022-12-07T14:23:31;94968.97;;;3.16;62.78
75166;BME280;63747;48.042;10.088;2022-12-07T14:26:32;94958.47;;;3.16;63.11
75166;BME280;63747;48.042;10.088;2022-12-07T14:29:33;94951.84;;;3.12;62.90
75166;BME280;63747;48.042;10.088;2022-12-07T14:32:35;94960.94;;;3.08;63.32
75166;BME280;63747;48.042;10.088;2022-12-07T14:35:37;94967.38;;;2.94;63.13
75166;BME280;63747;48.042;10.088;2022-12-07T14:38:40;94964.16;;;2.81;63.39
75166;BME280;63747;48.042;10.088;2022-12-07T14:41:41;94970.06;;;2.73;64.00
75166;BME280;63747;48.042;10.088;2022-12-07T14:44:52;94971.78;;;2.63;64.20
75166;BME280;63747;48.042;10.088;2022-12-07T14:47:52;94970.41;;;2.59;64.38
75166;BME280;63747;48.042;10.088;2022-12-07T14:50:53;94967.88;;;2.48;64.63
75166;BME280;63747;48.042;10.088;2022-12-07T14:53:54;94965.63;;;2.43;64.83
75166;BME280;63747;48.042;10.088;2022-12-07T14:56:55;94956.78;;;2.34;64.65
75166;BME280;63747;48.042;10.088;2022-12-07T14:59:56;94960.19;;;2.25;64.89
75166;BME280;63747;48.042;10.088;2022-12-07T15:02:59;94960.56;;;2.21;65.05
75166;BME280;63747;48.042;10.088;2022-12-07T15:06:10;94962.06;;;2.23;65.15
75166;BME280;63747;48.042;10.088;2022-12-07T15:09:19;94962.22;;;2.22;65.23
75166;BME280;63747;48.042;10.088;2022-12-07T15:12:21;94966.28;;;2.14;65.14
75166;BME280;63747;48.042;10.088;2022-12-07T15:15:22;94958.63;;;2.02;65.66
75166;BME280;63747;48.042;10.088;2022-12-07T15:18:23;94964.97;;;1.99;65.59
75166;BME280;63747;48.042;10.088;2022-12-07T15:21:24;94959.47;;;2.02;65.79
75166;BME280;63747;48.042;10.088;2022-12-07T15:24:35;94961.94;;;2.04;65.72
75166;BME280;63747;48.042;10.088;2022-12-07T15:27:37;94956.72;;;2.04;65.89
75166;BME280;63747;48.042;10.088;2022-12-07T15:30:40;94962.47;;;1.98;65.71
75166;BME280;63747;48.042;10.088;2022-12-07T15:33:46;94966.56;;;1.91;65.89
75166;BME280;63747;48.042;10.088;2022-12-07T15:36:48;94967.75;;;1.86;66.05
75166;BME280;63747;48.042;10.088;2022-12-07T15:39:49;94965.91;;;1.77;66.05
75166;BME280;63747;48.042;10.088;2022-12-07T15:42:50;94969.03;;;1.71;66.05
75166;BME280;63747;48.042;10.088;2022-12-07T15:45:51;94971.88;;;1.68;66.31
75166;BME280;63747;48.042;10.088;2022-12-07T15:48:52;94969.06;;;1.60;66.39
75166;BME280;63747;48.042;10.088;2022-12-07T15:51:54;94957.31;;;1.54;66.28
75166;BME280;63747;48.042;10.088;2022-12-07T15:54:55;94964.59;;;1.51;66.44
75166;BME280;63747;48.042;10.088;2022-12-07T15:57:56;94957.38;;;1.43;66.21
75166;BME280;63747;48.042;10.088;2022-12-07T16:00:57;94955.94;;;1.39;66.56
75166;BME280;63747;48.042;10.088;2022-12-07T16:04:08;94956.56;;;1.31;66.56
75166;BME280;63747;48.042;10.088;2022-12-07T16:07:10;94957.41;;;1.21;66.80
75166;BME280;63747;48.042;10.088;2022-12-07T16:10:25;94950.41;;;1.21;66.59
75166;BME280;63747;48.042;10.088;2022-12-07T16:13:26;94948.06;;;1.18;66.60
75166;BME280;63747;48.042;10.088;2022-12-07T16:16:28;94953.78;;;1.12;66.78
75166;BME280;63747;48.042;10.088;2022-12-07T16:19:29;94951.44;;;0.98;66.95
75166;BME280;63747;48.042;10.088;2022-12-07T16:22:31;94959.13;;;0.88;67.08
75166;BME280;63747;48.042;10.088;2022-12-07T16:25:32;94954.56;;;0.69;67.19
75166;BME280;63747;48.042;10.088;2022-12-07T16:28:37;94953.00;;;0.44;67.71
75166;BME280;63747;48.042;10.088;2022-12-07T16:31:38;94950.75;;;0.29;68.37
75166;BME280;63747;48.042;10.088;2022-12-07T16:34:40;94952.38;;;0.18;68.32
75166;BME280;63747;48.042;10.088;2022-12-07T16:37:44;94958.06;;;0.12;68.82
75166;BME280;63747;48.042;10.088;2022-12-07T16:40:47;94957.09;;;0.13;68.87
75166;BME280;63747;48.042;10.088;2022-12-07T16:44:03;94950.34;;;0.11;69.02
75166;BME280;63747;48.042;10.088;2022-12-07T16:47:05;94955.44;;;0.01;69.08
75166;BME280;63747;48.042;10.088;2022-12-07T16:50:06;94950.19;;;-0.10;69.11
75166;BME280;63747;48.042;10.088;2022-12-07T16:53:09;94953.25;;;-0.16;69.30
75166;BME280;63747;48.042;10.088;2022-12-07T16:56:13;94950.41;;;-0.24;69.78
75166;BME280;63747;48.042;10.088;2022-12-07T16:59:15;94949.47;;;-0.23;69.88
75166;BME280;63747;48.042;10.088;2022-12-07T17:02:16;94946.47;;;-0.30;69.91
75166;BME280;63747;48.042;10.088;2022-12-07T17:05:18;94944.00;;;-0.32;70.06
75166;BME280;63747;48.042;10.088;2022-12-07T17:08:21;94944.56;;;-0.28;70.03
75166;BME280;63747;48.042;10.088;2022-12-07T17:11:25;94938.78;;;-0.20;70.15
75166;BME280;63747;48.042;10.088;2022-12-07T17:14:27;94939.78;;;-0.10;70.18
75166;BME280;63747;48.042;10.088;2022-12-07T17:17:55;94940.38;;;-0.07;69.97
75166;BME280;63747;48.042;10.088;2022-12-07T17:21:05;94940.63;;;-0.10;70.03
75166;BME280;63747;48.042;10.088;2022-12-07T17:24:10;94926.31;;;-0.04;70.03
75166;BME280;63747;48.042;10.088;2022-12-07T17:27:13;94928.31;;;0.04;70.15
75166;BME280;63747;48.042;10.088;2022-12-07T17:30:14;94929.75;;;0.08;70.20
75166;BME280;63747;48.042;10.088;2022-12-07T17:33:19;94923.97;;;0.15;69.84
75166;BME280;63747;48.042;10.088;2022-12-07T17:36:26;94924.66;;;0.17;69.85
75166;BME280;63747;48.042;10.088;2022-12-07T17:39:28;94923.97;;;0.15;69.89
75166;BME280;63747;48.042;10.088;2022-12-07T17:42:29;94915.16;;;0.05;69.91
75166;BME280;63747;48.042;10.088;2022-12-07T17:45:36;94926.28;;;0.07;70.27
75166;BME280;63747;48.042;10.088;2022-12-07T17:48:40;94920.63;;;0.02;70.17
75166;BME280;63747;48.042;10.088;2022-12-07T17:51:45;94917.91;;;0.04;70.28